createdAt,value
2017-11-09T00:00:24.856Z,0
2017-11-09T00:01:35.003Z,0
2017-11-09T00:02:45.123Z,0
2017-11-09T00:03:54.871Z,0
2017-11-09T00:05:05.035Z,0
2017-11-09T00:06:15.745Z,0
2017-11-09T00:07:26.210Z,0
2017-11-09T00:08:36.662Z,0
2017-11-09T00:09:46.852Z,0
2017-11-09T00:10:57.396Z,0
2017-11-09T00:12:07.912Z,0
2017-11-09T00:13:18.417Z,0
2017-11-09T00:14:28.863Z,0
2017-11-09T00:15:38.984Z,0
2017-11-09T00:16:49.104Z,0
2017-11-09T00:17:59.775Z,0
2017-11-09T00:19:10.262Z,0
2017-11-09T00:20:20.739Z,0
2017-11-09T00:21:31.185Z,0
2017-11-09T00:22:41.389Z,0
2017-11-09T00:23:51.192Z,0
2017-11-09T00:25:01.637Z,0
2017-11-09T00:26:12.335Z,0
2017-11-09T00:27:22.874Z,0
2017-11-09T00:28:33.346Z,0
2017-11-09T00:29:43.191Z,0
2017-11-09T00:30:53.970Z,0
2017-11-09T00:32:04.128Z,0
2017-11-09T00:33:14.646Z,0
2017-11-09T00:34:25.155Z,0
2017-11-09T00:35:35.632Z,0
2017-11-09T00:36:46.039Z,0
2017-11-09T00:37:56.499Z,0
2017-11-09T00:39:06.639Z,0
2017-11-09T00:40:16.685Z,0
2017-11-09T00:41:26.832Z,0
2017-11-09T00:42:36.539Z,0
2017-11-09T00:43:47.024Z,0
2017-11-09T00:44:57.187Z,0
2017-11-09T00:46:07.733Z,0
2017-11-09T00:47:18.191Z,0
2017-11-09T00:48:28.729Z,0
2017-11-09T00:49:39.200Z,0
2017-11-09T00:50:49.689Z,0
2017-11-09T00:52:00.152Z,0
2017-11-09T00:53:10.305Z,0
2017-11-09T00:54:20.809Z,0
2017-11-09T00:55:31.254Z,0
2017-11-09T00:56:41.040Z,0
2017-11-09T00:57:51.512Z,0
2017-11-09T00:59:01.715Z,0
2017-11-09T01:00:11.519Z,0
2017-11-09T01:01:22.261Z,0
2017-11-09T01:02:32.720Z,0
2017-11-09T01:03:42.900Z,0
2017-11-09T01:04:53.158Z,0
2017-11-09T01:06:03.708Z,0
2017-11-09T01:07:14.304Z,0
2017-11-09T01:08:24.766Z,0
2017-11-09T01:09:35.225Z,0
2017-11-09T01:10:45.675Z,0
2017-11-09T01:11:56.149Z,0
2017-11-09T01:13:06.632Z,0
2017-11-09T01:14:16.345Z,0
2017-11-09T01:15:26.817Z,0
2017-11-09T01:16:37.016Z,0
2017-11-09T01:17:47.037Z,0
2017-11-09T01:18:57.479Z,0
2017-11-09T01:20:07.748Z,0
2017-11-09T01:21:17.919Z,0
2017-11-09T01:22:28.384Z,0
2017-11-09T01:23:38.861Z,0
2017-11-09T01:24:49.001Z,0
2017-11-09T01:25:58.819Z,0
2017-11-09T01:27:09.333Z,0
2017-11-09T01:28:19.896Z,0
2017-11-09T01:29:30.358Z,0
2017-11-09T01:30:40.821Z,0
2017-11-09T01:31:50.972Z,0
2017-11-09T01:33:33.236Z,0
2017-11-09T01:34:43.233Z,0
2017-11-09T01:35:53.713Z,0
2017-11-09T01:37:04.241Z,0
2017-11-09T01:38:14.714Z,0
2017-11-09T01:39:24.519Z,0
2017-11-09T01:40:34.261Z,0
2017-11-09T01:41:44.416Z,0
2017-11-09T01:42:54.864Z,0
2017-11-09T01:44:04.979Z,0
2017-11-09T01:45:15.433Z,0
2017-11-09T01:46:25.879Z,0
2017-11-09T01:47:36.017Z,0
2017-11-09T01:48:46.205Z,0
2017-11-09T01:49:56.386Z,0
2017-11-09T01:51:06.826Z,0
2017-11-09T01:52:17.327Z,0
2017-11-09T01:53:27.770Z,0
2017-11-09T01:54:38.280Z,0
2017-11-09T01:55:48.429Z,0
2017-11-09T01:56:58.569Z,0
2017-11-09T01:58:09.017Z,0
2017-11-09T01:59:19.515Z,0
2017-11-09T02:00:29.668Z,0
2017-11-09T02:01:40.124Z,0
2017-11-09T02:02:50.259Z,0
2017-11-09T02:04:00.291Z,0
2017-11-09T02:05:10.785Z,0
2017-11-09T02:06:21.233Z,0
2017-11-09T02:07:31.399Z,0
2017-11-09T02:08:41.852Z,0
2017-11-09T02:09:52.237Z,0
2017-11-09T02:11:03.130Z,0
2017-11-09T02:12:12.537Z,0
2017-11-09T02:13:22.986Z,0
2017-11-09T02:14:33.438Z,0
2017-11-09T02:15:43.931Z,0
2017-11-09T02:16:54.200Z,0
2017-11-09T02:18:04.673Z,0
2017-11-09T02:19:15.322Z,0
2017-11-09T02:20:25.105Z,0
2017-11-09T02:21:35.553Z,0
2017-11-09T02:22:46.001Z,0
2017-11-09T02:23:56.455Z,0
2017-11-09T02:25:05.922Z,0
2017-11-09T02:26:16.369Z,0
2017-11-09T02:27:26.515Z,0
2017-11-09T02:28:36.248Z,0
2017-11-09T02:29:46.361Z,0
2017-11-09T02:30:56.802Z,0
2017-11-09T02:32:07.330Z,0
2017-11-09T02:33:17.447Z,0
2017-11-09T02:34:27.914Z,0
2017-11-09T02:35:38.085Z,0
2017-11-09T02:36:48.635Z,0
2017-11-09T02:37:59.109Z,0
2017-11-09T02:39:09.557Z,0
2017-11-09T02:40:20.010Z,0
2017-11-09T02:41:30.554Z,0
2017-11-09T02:42:40.665Z,0
2017-11-09T02:43:50.055Z,0
2017-11-09T02:45:00.532Z,0
2017-11-09T02:46:10.034Z,0
2017-11-09T02:47:20.166Z,0
2017-11-09T02:48:30.450Z,0
2017-11-09T02:49:40.953Z,0
2017-11-09T02:50:51.407Z,0
2017-11-09T02:52:01.786Z,0
2017-11-09T02:53:11.900Z,0
2017-11-09T02:54:22.371Z,0
2017-11-09T02:55:32.379Z,0
2017-11-09T02:56:42.937Z,0
2017-11-09T02:57:53.450Z,0
2017-11-09T02:59:03.702Z,0
2017-11-09T03:00:14.230Z,0
2017-11-09T03:01:24.686Z,0
2017-11-09T03:02:35.129Z,0
2017-11-09T03:03:45.561Z,0
2017-11-09T03:04:55.706Z,0
2017-11-09T03:06:05.849Z,0
2017-11-09T03:07:16.010Z,0
2017-11-09T03:08:26.269Z,0
2017-11-09T03:09:36.865Z,0
2017-11-09T03:10:47.311Z,0
2017-11-09T03:11:57.822Z,0
2017-11-09T03:13:08.282Z,0
2017-11-09T03:14:18.430Z,0
2017-11-09T03:15:29.156Z,0
2017-11-09T03:16:39.818Z,0
2017-11-09T03:17:50.371Z,0
2017-11-09T03:19:00.230Z,0
2017-11-09T03:20:10.950Z,0
2017-11-09T03:21:21.513Z,0
2017-11-09T03:22:31.208Z,0
2017-11-09T03:23:41.666Z,0
2017-11-09T03:24:51.887Z,0
2017-11-09T03:26:02.431Z,0
2017-11-09T03:27:12.894Z,0
2017-11-09T03:28:23.102Z,0
2017-11-09T03:29:33.626Z,0
2017-11-09T03:30:44.137Z,0
2017-11-09T03:31:55.572Z,0
2017-11-09T03:33:06.049Z,0
2017-11-09T03:34:16.196Z,0
2017-11-09T03:35:26.340Z,0
2017-11-09T03:36:36.604Z,0
2017-11-09T03:37:46.730Z,0
2017-11-09T03:38:56.821Z,0
2017-11-09T03:40:06.982Z,0
2017-11-09T03:41:17.119Z,0
2017-11-09T03:42:27.570Z,0
2017-11-09T03:43:37.692Z,0
2017-11-09T03:44:47.901Z,0
2017-11-09T03:45:58.030Z,0
2017-11-09T03:47:08.070Z,0
2017-11-09T03:48:18.608Z,0
2017-11-09T03:49:28.767Z,0
2017-11-09T03:50:38.914Z,0
2017-11-09T03:51:49.082Z,0
2017-11-09T03:52:59.557Z,0
2017-11-09T03:54:09.373Z,0
2017-11-09T03:55:19.620Z,0
2017-11-09T03:56:30.148Z,0
2017-11-09T03:57:40.595Z,0
2017-11-09T03:58:51.090Z,0
2017-11-09T04:00:01.197Z,0
2017-11-09T04:01:11.948Z,0
2017-11-09T04:02:22.754Z,0
2017-11-09T04:03:33.233Z,0
2017-11-09T04:04:43.312Z,0
2017-11-09T04:05:53.343Z,0
2017-11-09T04:07:03.136Z,0
2017-11-09T04:08:13.267Z,0
2017-11-09T04:09:23.704Z,0
2017-11-09T04:10:34.388Z,0
2017-11-09T04:11:44.839Z,0
2017-11-09T04:12:55.311Z,0
2017-11-09T04:14:05.763Z,0
2017-11-09T04:15:16.313Z,0
2017-11-09T04:16:26.872Z,0
2017-11-09T04:17:36.997Z,0
2017-11-09T04:18:46.797Z,0
2017-11-09T04:19:56.826Z,0
2017-11-09T04:21:06.980Z,0
2017-11-09T04:22:17.476Z,0
2017-11-09T04:23:27.339Z,0
2017-11-09T04:24:37.462Z,0
2017-11-09T04:25:47.929Z,0
2017-11-09T04:26:58.097Z,0
2017-11-09T04:28:08.148Z,0
2017-11-09T04:29:18.823Z,0
2017-11-09T04:30:29.312Z,0
2017-11-09T04:31:39.349Z,0
2017-11-09T04:32:49.480Z,0
2017-11-09T04:33:59.959Z,0
2017-11-09T04:35:10.339Z,0
2017-11-09T04:36:20.605Z,0
2017-11-09T04:37:31.094Z,0
2017-11-09T04:38:41.651Z,0
2017-11-09T04:39:51.895Z,0
2017-11-09T04:41:02.380Z,0
2017-11-09T04:42:12.920Z,0
2017-11-09T04:43:23.376Z,0
2017-11-09T04:44:33.818Z,0
2017-11-09T04:45:44.355Z,0
2017-11-09T04:46:54.492Z,0
2017-11-09T04:48:04.733Z,0
2017-11-09T04:49:15.188Z,0
2017-11-09T04:50:25.641Z,0
2017-11-09T04:51:36.199Z,0
2017-11-09T04:52:46.702Z,0
2017-11-09T04:53:57.428Z,0
2017-11-09T04:55:07.536Z,0
2017-11-09T04:56:18.034Z,0
2017-11-09T04:57:28.161Z,0
2017-11-09T04:58:38.645Z,0
2017-11-09T04:59:48.867Z,0
2017-11-09T05:00:59.010Z,0
2017-11-09T05:02:09.137Z,0
2017-11-09T05:03:19.188Z,0
2017-11-09T05:04:29.850Z,0
2017-11-09T05:05:40.359Z,0
2017-11-09T05:06:50.869Z,0
2017-11-09T05:08:01.209Z,0
2017-11-09T05:09:11.919Z,0
2017-11-09T05:10:22.623Z,0
2017-11-09T05:11:32.690Z,0
2017-11-09T05:12:43.131Z,0
2017-11-09T05:13:53.620Z,0
2017-11-09T05:15:04.078Z,0
2017-11-09T05:16:14.543Z,0
2017-11-09T05:17:24.742Z,0
2017-11-09T05:18:35.235Z,0
2017-11-09T05:19:45.421Z,0
2017-11-09T05:20:55.536Z,0
2017-11-09T05:22:05.987Z,0
2017-11-09T05:23:16.426Z,0
2017-11-09T05:24:26.875Z,0
2017-11-09T05:25:37.356Z,0
2017-11-09T05:26:47.517Z,0
2017-11-09T05:27:57.690Z,0
2017-11-09T05:29:07.811Z,0
2017-11-09T05:30:17.552Z,0
2017-11-09T05:31:27.708Z,0
2017-11-09T05:32:37.827Z,0
2017-11-09T05:33:47.977Z,0
2017-11-09T05:34:58.453Z,0
2017-11-09T05:36:08.192Z,0
2017-11-09T05:37:19.033Z,0
2017-11-09T05:38:29.481Z,0
2017-11-09T05:39:39.482Z,0
2017-11-09T05:40:49.940Z,0
2017-11-09T05:42:00.094Z,0
2017-11-09T05:43:09.889Z,0
2017-11-09T05:44:20.269Z,0
2017-11-09T05:45:30.757Z,0
2017-11-09T05:46:41.304Z,0
2017-11-09T05:47:51.409Z,0
2017-11-09T05:49:01.918Z,0
2017-11-09T05:50:12.374Z,0
2017-11-09T05:51:22.820Z,0
2017-11-09T05:52:33.326Z,0
2017-11-09T05:53:43.456Z,0
2017-11-09T05:54:53.952Z,0
2017-11-09T05:56:04.509Z,0
2017-11-09T05:57:14.960Z,4
2017-11-09T05:58:25.410Z,4
2017-11-09T05:59:35.448Z,4
2017-11-09T06:00:45.925Z,0
2017-11-09T06:01:56.038Z,4
2017-11-09T06:03:06.555Z,4
2017-11-09T06:04:17.030Z,4
2017-11-09T06:05:27.494Z,8
2017-11-09T06:06:38.174Z,8
2017-11-09T06:07:48.640Z,8
2017-11-09T06:08:59.085Z,12
2017-11-09T06:10:09.536Z,12
2017-11-09T06:11:19.371Z,16
2017-11-09T06:12:29.870Z,16
2017-11-09T06:13:40.361Z,20
2017-11-09T06:14:50.896Z,24
2017-11-09T06:16:00.709Z,28
2017-11-09T06:17:11.173Z,36
2017-11-09T06:18:21.653Z,40
2017-11-09T06:19:31.696Z,44
2017-11-09T06:20:42.167Z,48
2017-11-09T06:21:51.985Z,48
2017-11-09T06:23:02.111Z,52
2017-11-09T06:24:11.930Z,52
2017-11-09T06:25:22.372Z,56
2017-11-09T06:26:32.525Z,60
2017-11-09T06:27:43.628Z,64
2017-11-09T06:28:53.308Z,64
2017-11-09T06:30:03.799Z,76
2017-11-09T06:31:14.283Z,84
2017-11-09T06:32:24.788Z,88
2017-11-09T06:33:34.896Z,100
2017-11-09T06:34:45.033Z,108
2017-11-09T06:35:56.127Z,116
2017-11-09T06:37:06.229Z,124
2017-11-09T06:38:16.714Z,128
2017-11-09T06:39:26.829Z,128
2017-11-09T06:40:36.973Z,128
2017-11-09T06:41:47.456Z,128
2017-11-09T06:42:57.575Z,132
2017-11-09T06:44:07.777Z,140
2017-11-09T06:45:18.469Z,144
2017-11-09T06:46:28.484Z,148
2017-11-09T06:47:38.542Z,160
2017-11-09T06:48:48.650Z,172
2017-11-09T06:49:59.108Z,180
2017-11-09T06:51:09.585Z,196
2017-11-09T06:52:20.052Z,208
2017-11-09T06:53:30.176Z,212
2017-11-09T06:54:40.298Z,212
2017-11-09T06:55:50.748Z,224
2017-11-09T06:57:00.451Z,228
2017-11-09T06:58:10.638Z,236
2017-11-09T06:59:21.092Z,248
2017-11-09T07:00:31.585Z,268
2017-11-09T07:01:42.179Z,288
2017-11-09T07:02:52.445Z,308
2017-11-09T07:04:03.005Z,336
2017-11-09T07:05:13.484Z,352
2017-11-09T07:06:23.333Z,364
2017-11-09T07:07:33.846Z,376
2017-11-09T07:08:43.971Z,392
2017-11-09T07:09:54.117Z,408
2017-11-09T07:11:04.607Z,424
2017-11-09T07:12:15.081Z,432
2017-11-09T07:13:25.522Z,452
2017-11-09T07:14:35.998Z,468
2017-11-09T07:15:46.511Z,484
2017-11-09T07:16:56.990Z,516
2017-11-09T07:18:07.123Z,544
2017-11-09T07:19:17.286Z,560
2017-11-09T07:20:27.408Z,580
2017-11-09T07:21:37.520Z,592
2017-11-09T07:22:47.984Z,604
2017-11-09T07:23:58.667Z,624
2017-11-09T07:25:09.186Z,652
2017-11-09T07:26:20.620Z,696
2017-11-09T07:27:30.558Z,752
2017-11-09T07:28:40.765Z,800
2017-11-09T07:29:51.256Z,836
2017-11-09T07:31:01.382Z,852
2017-11-09T07:32:11.539Z,868
2017-11-09T07:33:21.984Z,880
2017-11-09T07:34:32.116Z,900
2017-11-09T07:35:42.152Z,884
2017-11-09T07:36:52.598Z,848
2017-11-09T07:38:03.146Z,812
2017-11-09T07:39:13.592Z,796
2017-11-09T07:40:24.045Z,808
2017-11-09T07:41:33.473Z,844
2017-11-09T07:42:43.622Z,896
2017-11-09T07:43:54.070Z,932
2017-11-09T07:45:04.210Z,948
2017-11-09T07:46:14.362Z,972
2017-11-09T07:47:24.817Z,1008
2017-11-09T07:48:35.274Z,1004
2017-11-09T07:49:45.757Z,1028
2017-11-09T07:50:56.213Z,1088
2017-11-09T07:52:06.682Z,1180
2017-11-09T07:53:17.522Z,1292
2017-11-09T07:54:27.974Z,1392
2017-11-09T07:55:38.546Z,1428
2017-11-09T07:56:49.071Z,1412
2017-11-09T07:57:59.537Z,1384
2017-11-09T07:59:09.707Z,1364
2017-11-09T08:00:20.160Z,1340
2017-11-09T08:01:30.673Z,1324
2017-11-09T08:02:41.198Z,1312
2017-11-09T08:03:51.378Z,1328
2017-11-09T08:05:01.846Z,1396
2017-11-09T08:06:12.308Z,1488
2017-11-09T08:07:22.140Z,1584
2017-11-09T08:08:32.404Z,1788
2017-11-09T08:09:42.890Z,2008
2017-11-09T08:10:53.036Z,2072
2017-11-09T08:12:03.549Z,1956
2017-11-09T08:13:14.100Z,1800
2017-11-09T08:14:24.551Z,1652
2017-11-09T08:15:34.587Z,1456
2017-11-09T08:16:44.787Z,1424
2017-11-09T08:17:55.261Z,1528
2017-11-09T08:19:05.771Z,1856
2017-11-09T08:20:16.199Z,2000
2017-11-09T08:21:26.360Z,1996
2017-11-09T08:22:36.512Z,1904
2017-11-09T08:23:47.003Z,1868
2017-11-09T08:24:57.135Z,1816
2017-11-09T08:26:07.342Z,1776
2017-11-09T08:27:17.895Z,1660
2017-11-09T08:28:28.375Z,1648
2017-11-09T08:29:38.866Z,1560
2017-11-09T08:30:49.350Z,1576
2017-11-09T08:31:59.497Z,1588
2017-11-09T08:33:09.645Z,1552
2017-11-09T08:34:20.128Z,1528
2017-11-09T08:35:30.612Z,1536
2017-11-09T08:36:41.149Z,1492
2017-11-09T08:37:51.780Z,1612
2017-11-09T08:39:02.250Z,1608
2017-11-09T08:40:12.817Z,1576
2017-11-09T08:41:23.344Z,1588
2017-11-09T08:42:33.518Z,1528
2017-11-09T08:43:43.972Z,1436
2017-11-09T08:44:54.425Z,1524
2017-11-09T08:46:04.960Z,1596
2017-11-09T08:47:14.995Z,1688
2017-11-09T08:48:25.482Z,1884
2017-11-09T08:49:35.516Z,1976
2017-11-09T08:50:46.225Z,1708
2017-11-09T08:51:56.672Z,1904
2017-11-09T08:53:06.478Z,2020
2017-11-09T08:54:16.937Z,2284
2017-11-09T08:55:26.719Z,2536
2017-11-09T08:56:37.224Z,2604
2017-11-09T08:57:47.664Z,2492
2017-11-09T08:58:57.751Z,2584
2017-11-09T09:00:07.902Z,2560
2017-11-09T09:01:18.366Z,2324
2017-11-09T09:02:28.859Z,2312
2017-11-09T09:03:39.321Z,2560
2017-11-09T09:04:49.580Z,2596
2017-11-09T09:05:59.606Z,2612
2017-11-09T09:07:09.731Z,2772
2017-11-09T09:08:20.181Z,2728
2017-11-09T09:09:30.319Z,2560
2017-11-09T09:10:40.557Z,2628
2017-11-09T09:11:51.061Z,2592
2017-11-09T09:13:01.206Z,2800
2017-11-09T09:14:11.675Z,2704
2017-11-09T09:15:21.800Z,2692
2017-11-09T09:16:32.072Z,2944
2017-11-09T09:17:41.859Z,3028
2017-11-09T09:18:51.987Z,2920
2017-11-09T09:20:02.178Z,3304
2017-11-09T09:21:12.742Z,3348
2017-11-09T09:22:23.321Z,3600
2017-11-09T09:23:33.815Z,3652
2017-11-09T09:24:44.266Z,3488
2017-11-09T09:25:54.734Z,3620
2017-11-09T09:27:04.526Z,3488
2017-11-09T09:28:14.659Z,3156
2017-11-09T09:29:24.416Z,2944
2017-11-09T09:30:34.900Z,2936
2017-11-09T09:31:45.027Z,2972
2017-11-09T09:32:54.824Z,3192
2017-11-09T09:34:04.943Z,3068
2017-11-09T09:35:15.436Z,2732
2017-11-09T09:36:25.639Z,2284
2017-11-09T09:37:35.773Z,1916
2017-11-09T09:38:46.278Z,1816
2017-11-09T09:39:56.791Z,1724
2017-11-09T09:41:06.586Z,1696
2017-11-09T09:42:17.050Z,1624
2017-11-09T09:43:27.562Z,1576
2017-11-09T09:44:38.032Z,1504
2017-11-09T09:45:48.491Z,1528
2017-11-09T09:46:58.619Z,1564
2017-11-09T09:48:08.795Z,1684
2017-11-09T09:49:19.280Z,1684
2017-11-09T09:50:29.467Z,1740
2017-11-09T09:51:40.151Z,1836
2017-11-09T09:52:50.428Z,1824
2017-11-09T09:54:00.971Z,1784
2017-11-09T09:55:11.438Z,1804
2017-11-09T09:56:22.019Z,1768
2017-11-09T09:57:32.147Z,1812
2017-11-09T09:58:41.956Z,1860
2017-11-09T09:59:52.403Z,1972
2017-11-09T10:01:03.203Z,2028
2017-11-09T10:02:12.903Z,2164
2017-11-09T10:03:23.039Z,2396
2017-11-09T10:04:33.606Z,2452
2017-11-09T10:05:44.286Z,2472
2017-11-09T10:06:54.730Z,2552
2017-11-09T10:08:05.266Z,2480
2017-11-09T10:09:15.389Z,2496
2017-11-09T10:10:25.569Z,2620
2017-11-09T10:11:35.290Z,2860
2017-11-09T10:12:44.988Z,3004
2017-11-09T10:13:55.528Z,3104
2017-11-09T10:15:06.098Z,2940
2017-11-09T10:16:16.362Z,2908
2017-11-09T10:17:26.816Z,2728
2017-11-09T10:18:37.042Z,2700
2017-11-09T10:19:47.496Z,2420
2017-11-09T10:20:57.984Z,1912
2017-11-09T10:22:08.137Z,1812
2017-11-09T10:23:18.642Z,1908
2017-11-09T10:24:29.117Z,2248
2017-11-09T10:25:38.930Z,2296
2017-11-09T10:26:49.395Z,2532
2017-11-09T10:27:59.134Z,2844
2017-11-09T10:29:09.250Z,2956
2017-11-09T10:30:18.971Z,3036
2017-11-09T10:31:29.100Z,2620
2017-11-09T10:32:39.554Z,2252
2017-11-09T10:33:50.042Z,2056
2017-11-09T10:35:00.493Z,1968
2017-11-09T10:36:11.015Z,2076
2017-11-09T10:37:21.467Z,2120
2017-11-09T10:38:31.730Z,2120
2017-11-09T10:39:41.897Z,1912
2017-11-09T10:40:52.089Z,1736
2017-11-09T10:42:02.631Z,1908
2017-11-09T10:43:12.448Z,2244
2017-11-09T10:44:22.596Z,2532
2017-11-09T10:45:33.041Z,2404
2017-11-09T10:46:43.801Z,2292
2017-11-09T10:47:54.508Z,2248
2017-11-09T10:49:05.037Z,2156
2017-11-09T10:50:14.734Z,1924
2017-11-09T10:51:24.844Z,1860
2017-11-09T10:52:35.294Z,1668
2017-11-09T10:53:45.803Z,1420
2017-11-09T10:54:56.307Z,1360
2017-11-09T10:56:06.774Z,1392
2017-11-09T10:57:17.248Z,1488
2017-11-09T10:58:27.803Z,1636
2017-11-09T10:59:37.937Z,1876
2017-11-09T11:00:48.475Z,1932
2017-11-09T11:01:58.934Z,2004
2017-11-09T11:03:09.074Z,1960
2017-11-09T11:04:19.736Z,1984
2017-11-09T11:05:30.215Z,1852
2017-11-09T11:06:39.971Z,1668
2017-11-09T11:07:50.495Z,1656
2017-11-09T11:09:00.981Z,1656
2017-11-09T11:10:11.750Z,1652
2017-11-09T11:11:22.255Z,1596
2017-11-09T11:12:32.774Z,1668
2017-11-09T11:13:42.909Z,1552
2017-11-09T11:14:52.320Z,1592
2017-11-09T11:16:02.782Z,1592
2017-11-09T11:17:13.369Z,1652
2017-11-09T11:18:23.154Z,1744
2017-11-09T11:19:33.290Z,1864
2017-11-09T11:20:43.490Z,1708
2017-11-09T11:21:52.847Z,1516
2017-11-09T11:23:03.000Z,1568
2017-11-09T11:24:13.119Z,1520
2017-11-09T11:25:23.279Z,1544
2017-11-09T11:26:33.711Z,1712
2017-11-09T11:27:43.529Z,2012
2017-11-09T11:28:53.364Z,2280
2017-11-09T11:30:03.844Z,3136
2017-11-09T11:31:14.427Z,4312
2017-11-09T11:32:24.906Z,6252
2017-11-09T11:33:35.067Z,10276
2017-11-09T11:34:45.674Z,9128
2017-11-09T11:35:55.555Z,8992
2017-11-09T11:37:05.605Z,13932
2017-11-09T11:38:16.098Z,14880
2017-11-09T11:39:26.575Z,12744
2017-11-09T11:40:37.049Z,9176
2017-11-09T11:41:47.515Z,8684
2017-11-09T11:42:58.072Z,7440
2017-11-09T11:44:08.572Z,6932
2017-11-09T11:45:18.951Z,6888
2017-11-09T11:46:29.433Z,6788
2017-11-09T11:47:39.587Z,6824
2017-11-09T11:48:50.113Z,6940
2017-11-09T11:50:00.597Z,6972
2017-11-09T11:51:10.955Z,7848
2017-11-09T11:52:21.410Z,11080
2017-11-09T11:53:32.110Z,10980
2017-11-09T11:54:42.263Z,8824
2017-11-09T11:55:52.431Z,8244
2017-11-09T11:57:02.902Z,8928
2017-11-09T11:58:13.036Z,8704
2017-11-09T11:59:23.566Z,7180
2017-11-09T12:00:33.762Z,6668
2017-11-09T12:01:43.940Z,5424
2017-11-09T12:02:54.423Z,5056
2017-11-09T12:04:04.872Z,4664
2017-11-09T12:05:15.470Z,4136
2017-11-09T12:06:25.998Z,3912
2017-11-09T12:07:36.545Z,2520
2017-11-09T12:08:47.049Z,2152
2017-11-09T12:09:57.527Z,2184
2017-11-09T12:11:07.550Z,2164
2017-11-09T12:12:18.035Z,2996
2017-11-09T12:13:28.163Z,4524
2017-11-09T12:14:38.009Z,5176
2017-11-09T12:15:47.733Z,5376
2017-11-09T12:16:57.547Z,6804
2017-11-09T12:18:07.683Z,9648
2017-11-09T12:19:18.188Z,10912
2017-11-09T12:20:28.684Z,8736
2017-11-09T12:21:39.154Z,9804
2017-11-09T12:22:49.348Z,12148
2017-11-09T12:23:59.879Z,12724
2017-11-09T12:25:10.385Z,12556
2017-11-09T12:26:20.532Z,12544
2017-11-09T12:27:30.791Z,12268
2017-11-09T12:28:41.470Z,11388
2017-11-09T12:29:51.673Z,10448
2017-11-09T12:31:02.188Z,9168
2017-11-09T12:32:12.686Z,8740
2017-11-09T12:33:23.174Z,8396
2017-11-09T12:34:32.538Z,7496
2017-11-09T12:35:42.701Z,6372
2017-11-09T12:36:53.403Z,5808
2017-11-09T12:38:03.938Z,6044
2017-11-09T12:39:14.069Z,6452
2017-11-09T12:40:24.528Z,6340
2017-11-09T12:41:35.682Z,5436
2017-11-09T12:42:45.815Z,4608
2017-11-09T12:43:55.515Z,4296
2017-11-09T12:45:05.666Z,4116
2017-11-09T12:46:16.430Z,4076
2017-11-09T12:47:26.603Z,3912
2017-11-09T12:48:36.745Z,3388
2017-11-09T12:49:47.231Z,3068
2017-11-09T12:50:57.041Z,3072
2017-11-09T12:52:07.167Z,3276
2017-11-09T12:53:17.354Z,3976
2017-11-09T12:54:27.821Z,4460
2017-11-09T12:55:38.103Z,4924
2017-11-09T12:56:48.625Z,5000
2017-11-09T12:57:58.761Z,4620
2017-11-09T12:59:09.220Z,4244
2017-11-09T13:00:19.746Z,4496
2017-11-09T13:01:30.335Z,4876
2017-11-09T13:02:40.808Z,5520
2017-11-09T13:03:50.940Z,5924
2017-11-09T13:05:01.121Z,6172
2017-11-09T13:06:11.221Z,5796
2017-11-09T13:07:21.750Z,5232
2017-11-09T13:08:32.300Z,4584
2017-11-09T13:09:42.352Z,3972
2017-11-09T13:10:52.813Z,3592
2017-11-09T13:12:03.274Z,3624
2017-11-09T13:13:13.430Z,3880
2017-11-09T13:14:23.870Z,3944
2017-11-09T13:15:34.383Z,3408
2017-11-09T13:16:44.090Z,2856
2017-11-09T13:17:54.548Z,2748
2017-11-09T13:19:05.043Z,2788
2017-11-09T13:20:15.523Z,2624
2017-11-09T13:21:25.588Z,2348
2017-11-09T13:22:35.718Z,1908
2017-11-09T13:23:46.180Z,1712
2017-11-09T13:24:56.316Z,1896
2017-11-09T13:26:06.355Z,1948
2017-11-09T13:27:16.496Z,2284
2017-11-09T13:28:25.885Z,2412
2017-11-09T13:29:36.340Z,2356
2017-11-09T13:30:46.768Z,2516
2017-11-09T13:31:57.269Z,2704
2017-11-09T13:33:07.529Z,2908
2017-11-09T13:34:18.121Z,3004
2017-11-09T13:35:28.628Z,2944
2017-11-09T13:36:39.084Z,2860
2017-11-09T13:37:49.710Z,2808
2017-11-09T13:39:00.293Z,2756
2017-11-09T13:40:10.757Z,2768
2017-11-09T13:41:20.896Z,2696
2017-11-09T13:42:31.025Z,2652
2017-11-09T13:43:41.185Z,2684
2017-11-09T13:44:51.642Z,2776
2017-11-09T13:46:02.117Z,2692
2017-11-09T13:47:12.331Z,2600
2017-11-09T13:48:22.839Z,2652
2017-11-09T13:49:33.502Z,2828
2017-11-09T13:50:43.650Z,2824
2017-11-09T13:51:54.193Z,2876
2017-11-09T13:53:04.649Z,2876
2017-11-09T13:54:15.136Z,2736
2017-11-09T13:55:25.233Z,2488
2017-11-09T13:56:35.698Z,2380
2017-11-09T13:57:46.259Z,2396
2017-11-09T13:58:56.715Z,2176
2017-11-09T14:00:06.411Z,1984
2017-11-09T14:01:16.981Z,1880
2017-11-09T14:02:27.272Z,1888
2017-11-09T14:03:37.413Z,1860
2017-11-09T14:04:48.046Z,1768
2017-11-09T14:05:58.505Z,1628
2017-11-09T14:07:09.282Z,1548
2017-11-09T14:08:19.459Z,1496
2017-11-09T14:09:29.951Z,1460
2017-11-09T14:10:40.732Z,1384
2017-11-09T14:11:50.896Z,1356
2017-11-09T14:13:00.954Z,1352
2017-11-09T14:14:11.012Z,1380
2017-11-09T14:15:21.493Z,1340
2017-11-09T14:16:31.983Z,1308
2017-11-09T14:17:42.489Z,1208
2017-11-09T14:18:52.936Z,1076
2017-11-09T14:20:03.616Z,932
2017-11-09T14:21:14.121Z,820
2017-11-09T14:22:24.285Z,756
2017-11-09T14:23:34.478Z,728
2017-11-09T14:24:44.606Z,692
2017-11-09T14:25:54.658Z,692
2017-11-09T14:27:05.183Z,696
2017-11-09T14:28:15.341Z,684
2017-11-09T14:29:25.865Z,656
2017-11-09T14:30:35.243Z,652
2017-11-09T14:31:45.844Z,640
2017-11-09T14:32:56.311Z,628
2017-11-09T14:34:06.796Z,616
2017-11-09T14:35:17.341Z,596
2017-11-09T14:36:27.876Z,568
2017-11-09T14:37:38.382Z,556
2017-11-09T14:38:48.640Z,528
2017-11-09T14:39:59.364Z,524
2017-11-09T14:41:10.100Z,560
2017-11-09T14:42:20.588Z,628
2017-11-09T14:43:30.780Z,668
2017-11-09T14:44:41.503Z,620
2017-11-09T14:45:51.975Z,572
2017-11-09T14:47:02.185Z,536
2017-11-09T14:48:12.658Z,548
2017-11-09T14:49:23.140Z,548
2017-11-09T14:50:32.949Z,548
2017-11-09T14:51:43.188Z,512
2017-11-09T14:52:53.343Z,448
2017-11-09T14:54:03.590Z,416
2017-11-09T14:55:14.129Z,404
2017-11-09T14:56:24.690Z,392
2017-11-09T14:57:34.731Z,388
2017-11-09T14:58:44.868Z,372
2017-11-09T14:59:54.998Z,356
2017-11-09T15:01:05.231Z,348
2017-11-09T15:02:15.476Z,324
2017-11-09T15:03:26.012Z,308
2017-11-09T15:04:36.747Z,276
2017-11-09T15:05:46.859Z,256
2017-11-09T15:06:57.348Z,268
2017-11-09T15:08:07.482Z,292
2017-11-09T15:09:17.951Z,292
2017-11-09T15:10:28.475Z,272
2017-11-09T15:11:38.977Z,252
2017-11-09T15:12:49.127Z,228
2017-11-09T15:13:59.560Z,212
2017-11-09T15:15:10.077Z,224
2017-11-09T15:16:20.561Z,236
2017-11-09T15:17:31.037Z,232
2017-11-09T15:18:41.520Z,224
2017-11-09T15:19:52.070Z,204
2017-11-09T15:21:02.619Z,192
2017-11-09T15:22:12.372Z,184
2017-11-09T15:23:22.912Z,164
2017-11-09T15:24:33.407Z,144
2017-11-09T15:25:43.889Z,120
2017-11-09T15:26:54.390Z,96
2017-11-09T15:28:04.899Z,84
2017-11-09T15:29:15.147Z,72
2017-11-09T15:30:25.689Z,60
2017-11-09T15:31:36.235Z,56
2017-11-09T15:32:46.753Z,52
2017-11-09T15:33:57.264Z,44
2017-11-09T15:35:07.812Z,44
2017-11-09T15:36:17.986Z,36
2017-11-09T15:37:28.048Z,36
2017-11-09T15:38:38.179Z,32
2017-11-09T15:39:48.320Z,24
2017-11-09T15:40:58.513Z,24
2017-11-09T15:42:08.691Z,20
2017-11-09T15:43:19.134Z,12
2017-11-09T15:44:29.611Z,12
2017-11-09T15:45:40.077Z,8
2017-11-09T15:46:50.531Z,8
2017-11-09T15:48:00.646Z,8
2017-11-09T15:49:10.809Z,8
2017-11-09T15:50:21.292Z,4
2017-11-09T15:51:31.881Z,4
2017-11-09T15:52:42.109Z,4
2017-11-09T15:53:52.581Z,0
2017-11-09T15:55:03.066Z,4
2017-11-09T15:56:12.778Z,0
2017-11-09T15:57:23.262Z,0
2017-11-09T15:58:33.084Z,0
2017-11-09T15:59:42.835Z,0
2017-11-09T16:00:52.651Z,0
2017-11-09T16:02:03.348Z,0
2017-11-09T16:03:13.464Z,0
2017-11-09T16:04:23.623Z,0
2017-11-09T16:05:34.078Z,0
2017-11-09T16:06:44.291Z,0
2017-11-09T16:07:54.243Z,0
2017-11-09T16:09:04.325Z,0
2017-11-09T16:10:14.849Z,0
2017-11-09T16:11:25.415Z,0
2017-11-09T16:12:35.882Z,0
2017-11-09T16:13:46.452Z,0
2017-11-09T16:14:56.935Z,0
2017-11-09T16:16:07.087Z,0
2017-11-09T16:17:17.233Z,0
2017-11-09T16:18:27.380Z,0
2017-11-09T16:19:38.020Z,0
2017-11-09T16:20:48.160Z,0
2017-11-09T16:21:58.646Z,0
2017-11-09T16:23:09.140Z,0
2017-11-09T16:24:19.623Z,0